Řízení letového provozu České republiky  
Aktualizace dat:  24.04.2014 13:39:18 UTC English version
   METEO Zobrazení stránky:  24.04.2014 13:42:49 UTC  
vysvětlivky
METAR EDDB 241320Z VRB02KT 9999 SCT020 18/12 Q1020 NOSIG=
METAR EDDC 241320Z 04008KT 9999 BKN032TCU SCT110 18/11 Q1018 TEMPO TSRA=
METAR EDDE 241320Z 06010KT 9999 FEW016 17/12 Q1019 NOSIG=
METAR EDDF 241320Z 09010KT 9999 FEW060TCU BKN300 23/07 Q1016 NOSIG=
METAR EDDM 241320Z 08008KT CAVOK 19/07 Q1017 NOSIG=
METAR EDDN 241320Z 05006KT 330V120 CAVOK 22/06 Q1016 NOSIG=
METAR EDDP 241320Z 03004KT 360V070 9999 BKN016 17/14 Q1020 NOSIG=
METAR EDDT 241320Z VRB01KT 9999 SCT022 17/12 Q1020 NOSIG=
METAR EDQM 241320Z 04007KT CAVOK 18/06 Q1019=
METAR EPBY 241330Z 09009KT 050V120 CAVOK 21/09 Q1020 =
METAR EPGD 241330Z 07012KT 030V100 CAVOK 15/04 Q1023 =
METAR EPKK 241330Z 08012KT 9999 FEW040TCU 21/11 Q1016 =
METAR EPKT 241330Z 07015KT 9999 FEW047 20/09 Q1017 =
METAR EPLL 241330Z 08012KT 050V110 CAVOK 21/09 Q1019 =
METAR EPPO 241330Z 02005KT 320V050 CAVOK 20/13 Q1020 =
METAR EPRZ 241330Z 08014KT 9999 SCT040CB 20/09 Q1017 =
METAR EPWA 241330Z 07012KT CAVOK 20/08 Q1020 NOSIG=
METAR EPWR 241330Z 04008KT 360V060 9999 -TSRA FEW035 SCT035CB 19/14 Q1018 =
METAR LHBP 241330Z 09011KT CAVOK 21/10 Q1013 NOSIG=
METAR LHSM 241245Z 35009KT CAVOK 19/13 Q1014 RERA NOSIG=
SPECI LKCV 241331Z 09015KT 9999 TS SCT030CB BKN070 18/09 Q1017 =
METAR LKKB 241300Z 34006G16KT 270V070 9999 FEW040CB BKN040 20/12 Q1017 NOSIG=
METAR LKKU 241300Z 35012KT 9999 -SHRA FEW015 FEW030CB SCT038 22/13 Q1014 RMK REG QNH 1012=
METAR LKKV 241330Z 07010KT CAVOK 18/08 Q1018 RMK REG QNH 1012=
METAR LKLN 241300Z AUTO VRB03KT CAVOK 20/07 Q1017=
METAR LKMT 241330Z 05016KT 9999 FEW047 20/10 Q1016 NOSIG RMK REG QNH 1012=
METAR LKNA 241300Z 04008KT 340V080 9999 SCT040CB FEW050 BKN100 19/08 Q1016 NOSIG=
METAR LKPD 241300Z 07009KT 040V110 7000 TSRA BKN035CB 15/11 Q1018 BECMG 9999 BKN040=
SPECI LKPR 241335Z 35008KT 9999 -SHRA FEW035CB SCT040 19/12 Q1017 RMK REG QNH 1012=
METAR LKTB 241330Z 07015KT 9999 FEW040 21/11 Q1015 TEMPO SHRA RMK REG QNH 1012=
METAR LKVO NIL
METAR LOWI 241320Z 08007KT 030V130 9999 FEW070 22/03 Q1015 NOSIG=
METAR LOWL 241320Z 30004KT 250V010 9999 -SHRA FEW035 FEW040CB BKN100 19/09 Q1016 TEMPO TSRA=
METAR LOWS 241320Z VRB04KT 9999 SCT050 SCT100 19/08 Q1017 NOSIG=
METAR LOWW 241320Z 33008KT 300V010 9999 FEW043 BKN300 22/12 Q1014 NOSIG=
METAR LZIB 241330Z 02003KT 340V080 CAVOK 24/09 Q1014 NOSIG=
METAR LZKZ 241330Z 05008KT 020V100 CAVOK 22/07 Q1013 NOSIG=
METAR LZPP 241330Z 01010KT 340V040 9999 SCT048 23/09 Q1013=
METAR LZSL 241330Z 10004KT 070V160 9999 SCT040 SCT070 23/08 Q1013=
METAR LZTT 241330Z 05014KT 9999 FEW053CB SCT056 18/12 Q1016 NOSIG=
METAR LZZI 241330Z 01005KT 350V050 9999 BKN050 20/11 Q1014=